createdAt,value
2019-04-29T00:00:48.300Z,4.34
2019-04-29T00:03:16.741Z,4.32
2019-04-29T00:05:43.727Z,4.31
2019-04-29T00:08:10.819Z,4.32
2019-04-29T00:10:37.766Z,4.31
2019-04-29T00:13:11.170Z,4.21
2019-04-29T00:15:56.774Z,4.13
2019-04-29T00:18:32.778Z,4.13
2019-04-29T00:20:59.970Z,4.14
2019-04-29T00:23:27.094Z,4.13
2019-04-29T00:25:54.072Z,4.08
2019-04-29T00:28:21.167Z,4.03
2019-04-29T00:30:49.920Z,4.01
2019-04-29T00:33:18.066Z,3.96
2019-04-29T00:35:45.021Z,3.98
2019-04-29T00:38:36.420Z,3.99
2019-04-29T00:41:21.864Z,3.98
2019-04-29T00:43:56.963Z,3.97
2019-04-29T00:46:23.953Z,3.96
2019-04-29T00:48:50.941Z,3.95
2019-04-29T00:51:19.114Z,3.92
2019-04-29T00:53:47.310Z,3.82
2019-04-29T00:56:14.354Z,3.74
2019-04-29T00:58:41.309Z,3.68
2019-04-29T01:01:12.009Z,3.67
2019-04-29T01:03:41.140Z,3.66
2019-04-29T01:06:07.955Z,3.64
2019-04-29T01:08:35.028Z,3.60
2019-04-29T01:11:01.959Z,3.59
2019-04-29T01:13:28.944Z,3.60
2019-04-29T01:15:56.082Z,3.59
2019-04-29T01:18:23.115Z,3.58
2019-04-29T01:20:50.104Z,3.61
2019-04-29T01:23:17.030Z,3.61
2019-04-29T01:25:45.879Z,3.58
2019-04-29T01:28:41.491Z,3.55
2019-04-29T01:31:16.362Z,3.54
2019-04-29T01:33:44.029Z,3.51
2019-04-29T01:36:45.829Z,3.45
2019-04-29T01:39:14.715Z,3.43
2019-04-29T01:42:01.376Z,3.43
2019-04-29T01:44:30.059Z,3.42
2019-04-29T01:46:57.012Z,3.43
2019-04-29T01:49:23.987Z,3.44
2019-04-29T01:51:50.970Z,3.45
2019-04-29T01:54:17.978Z,3.42
2019-04-29T01:56:45.023Z,3.42
2019-04-29T01:59:11.997Z,3.38
2019-04-29T02:01:38.944Z,3.39
2019-04-29T02:04:05.887Z,3.33
2019-04-29T02:06:32.967Z,3.31
2019-04-29T02:08:59.903Z,3.33
2019-04-29T02:11:29.866Z,3.32
2019-04-29T02:13:58.669Z,3.26
2019-04-29T02:16:25.588Z,3.24
2019-04-29T02:18:52.531Z,3.17
2019-04-29T02:21:19.520Z,3.06
2019-04-29T02:23:58.830Z,3.00
2019-04-29T02:26:25.834Z,3.01
2019-04-29T02:28:52.921Z,3.00
2019-04-29T02:31:38.923Z,3.01
2019-04-29T02:34:06.196Z,2.96
2019-04-29T02:36:33.228Z,2.93
2019-04-29T02:39:14.724Z,2.93
2019-04-29T02:41:49.427Z,2.93
2019-04-29T02:44:22.511Z,2.96
2019-04-29T02:46:49.475Z,2.98
2019-04-29T02:49:16.441Z,2.96
2019-04-29T02:51:50.147Z,2.95
2019-04-29T02:54:17.233Z,2.92
2019-04-29T02:56:47.077Z,2.91
2019-04-29T02:59:15.348Z,2.93
2019-04-29T03:02:02.551Z,2.91
2019-04-29T03:04:32.933Z,2.93
2019-04-29T03:07:00.410Z,2.93
2019-04-29T03:09:27.397Z,2.93
2019-04-29T03:11:55.644Z,2.84
2019-04-29T03:14:22.615Z,2.79
2019-04-29T03:16:49.580Z,2.73
2019-04-29T03:19:22.256Z,2.71
2019-04-29T03:21:54.603Z,2.73
2019-04-29T03:24:21.536Z,2.74
2019-04-29T03:26:48.519Z,2.74
2019-04-29T03:29:21.289Z,2.76
2019-04-29T03:31:49.028Z,2.76
2019-04-29T03:34:16.093Z,2.70
2019-04-29T03:36:43.025Z,2.69
2019-04-29T03:39:09.959Z,2.70
2019-04-29T03:41:36.937Z,2.70
2019-04-29T03:44:03.868Z,2.64
2019-04-29T03:46:30.920Z,2.61
2019-04-29T03:49:02.297Z,2.60
2019-04-29T03:51:30.380Z,2.61
2019-04-29T03:53:58.470Z,2.63
2019-04-29T03:56:25.444Z,2.63
2019-04-29T03:58:52.370Z,2.66
2019-04-29T04:01:41.495Z,2.61
2019-04-29T04:04:18.375Z,2.53
2019-04-29T04:09:52.602Z,2.51
2019-04-29T04:12:19.777Z,2.56
2019-04-29T04:14:46.744Z,2.61
2019-04-29T04:17:23.148Z,2.62
2019-04-29T04:19:50.224Z,2.67
2019-04-29T04:22:17.245Z,2.70
2019-04-29T04:24:44.325Z,2.71
2019-04-29T04:27:11.272Z,2.72
2019-04-29T04:29:38.227Z,2.69
2019-04-29T04:32:05.386Z,2.71
2019-04-29T04:34:33.358Z,2.74
2019-04-29T04:37:00.608Z,2.81
2019-04-29T04:39:29.667Z,2.89
2019-04-29T04:41:57.707Z,2.94
2019-04-29T04:44:44.354Z,2.99
2019-04-29T04:47:11.630Z,3.03
2019-04-29T04:49:38.620Z,3.08
2019-04-29T04:52:06.070Z,3.11
2019-04-29T04:54:33.054Z,3.19
2019-04-29T04:56:59.999Z,3.20
2019-04-29T04:59:27.001Z,3.28
2019-04-29T05:01:53.939Z,3.40
2019-04-29T05:04:20.892Z,3.56
2019-04-29T05:06:47.888Z,3.68
2019-04-29T05:09:14.829Z,3.79
2019-04-29T05:11:41.768Z,3.90
2019-04-29T05:14:08.734Z,3.99
2019-04-29T05:16:35.676Z,4.11
2019-04-29T05:19:02.622Z,4.21
2019-04-29T05:21:30.797Z,4.34
2019-04-29T05:23:57.771Z,4.43
2019-04-29T05:26:24.814Z,4.51
2019-04-29T05:28:51.759Z,4.63
2019-04-29T05:31:18.869Z,4.72
2019-04-29T05:33:45.803Z,4.81
2019-04-29T05:36:26.363Z,4.93
2019-04-29T05:38:57.529Z,5.02
2019-04-29T05:41:25.619Z,5.14
2019-04-29T05:44:13.699Z,5.24
2019-04-29T05:47:09.452Z,5.31
2019-04-29T05:49:44.482Z,5.37
2019-04-29T05:52:18.718Z,5.47
2019-04-29T05:54:45.791Z,5.56
2019-04-29T05:57:13.382Z,5.67
2019-04-29T05:59:43.412Z,5.76
2019-04-29T06:02:10.950Z,5.85
2019-04-29T06:04:37.944Z,5.94
2019-04-29T06:07:04.892Z,6.04
2019-04-29T06:09:31.872Z,6.14
2019-04-29T06:12:19.680Z,6.25
2019-04-29T06:14:46.647Z,6.40
2019-04-29T06:17:13.592Z,6.53
2019-04-29T06:19:41.055Z,6.65
2019-04-29T06:22:08.230Z,6.79
2019-04-29T06:24:36.978Z,6.91
2019-04-29T06:27:04.158Z,7.04
2019-04-29T06:29:31.128Z,7.17
2019-04-29T06:31:58.075Z,7.27
2019-04-29T06:34:25.063Z,7.38
2019-04-29T06:36:51.999Z,7.49
2019-04-29T06:40:22.795Z,7.55
2019-04-29T06:42:53.385Z,7.63
2019-04-29T06:45:18.595Z,7.75
2019-04-29T06:47:45.619Z,7.83
2019-04-29T06:50:13.072Z,7.91
2019-04-29T06:52:40.027Z,8.02
2019-04-29T06:55:07.142Z,8.09
2019-04-29T06:57:34.115Z,8.16
2019-04-29T07:00:01.209Z,8.24
2019-04-29T07:02:28.204Z,8.31
2019-04-29T07:04:56.324Z,8.40
2019-04-29T07:07:23.273Z,8.46
2019-04-29T07:10:29.698Z,8.55
2019-04-29T07:12:58.441Z,8.73
2019-04-29T07:15:25.398Z,8.89
2019-04-29T07:17:52.358Z,8.98
2019-04-29T07:20:19.329Z,9.09
2019-04-29T07:22:46.266Z,9.25
2019-04-29T07:25:13.351Z,9.40
2019-04-29T07:27:43.566Z,9.52
2019-04-29T07:30:09.948Z,9.70
2019-04-29T07:32:37.017Z,9.90
2019-04-29T07:35:05.840Z,9.94
2019-04-29T07:37:37.444Z,9.96
2019-04-29T07:40:08.093Z,9.99
2019-04-29T07:42:33.895Z,10.02
2019-04-29T07:45:19.213Z,10.14
2019-04-29T07:47:56.375Z,10.28
2019-04-29T07:50:17.320Z,10.48
2019-04-29T07:52:45.623Z,10.61
2019-04-29T07:55:13.603Z,10.71
2019-04-29T07:57:40.635Z,10.93
2019-04-29T08:00:12.724Z,10.99
2019-04-29T08:02:37.744Z,11.05
2019-04-29T08:05:06.418Z,11.17
2019-04-29T08:07:33.835Z,11.32
2019-04-29T08:10:02.343Z,11.39
2019-04-29T08:12:31.192Z,11.58
2019-04-29T08:15:07.552Z,11.59
2019-04-29T08:17:28.431Z,11.74
2019-04-29T08:19:55.397Z,11.86
2019-04-29T08:22:22.848Z,11.89
2019-04-29T08:24:52.200Z,11.95
2019-04-29T08:27:43.845Z,12.02
2019-04-29T08:30:13.244Z,12.01
2019-04-29T08:32:40.165Z,12.01
2019-04-29T08:35:07.279Z,12.10
2019-04-29T08:37:34.280Z,12.18
2019-04-29T08:40:15.472Z,12.22
2019-04-29T08:42:37.246Z,12.28
2019-04-29T08:45:11.918Z,12.28
2019-04-29T08:47:42.557Z,12.27
2019-04-29T08:50:09.744Z,12.37
2019-04-29T08:52:37.104Z,12.56
2019-04-29T08:55:04.450Z,12.71
2019-04-29T08:57:31.806Z,12.68
2019-04-29T09:00:00.204Z,12.61
2019-04-29T09:02:34.983Z,12.67
2019-04-29T09:04:56.047Z,12.92
2019-04-29T09:07:23.252Z,13.03
2019-04-29T09:09:50.368Z,13.01
2019-04-29T09:12:19.329Z,13.01
2019-04-29T09:14:46.209Z,13.09
2019-04-29T09:17:20.315Z,13.32
2019-04-29T09:19:42.135Z,13.37
2019-04-29T09:22:11.299Z,13.39
2019-04-29T09:24:43.673Z,13.42
2019-04-29T09:27:16.475Z,13.33
2019-04-29T09:29:46.322Z,13.29
2019-04-29T09:32:12.253Z,13.25
2019-04-29T09:34:41.031Z,13.22
2019-04-29T09:37:08.010Z,13.42
2019-04-29T09:39:43.370Z,13.62
2019-04-29T09:42:16.114Z,13.80
2019-04-29T09:45:01.608Z,13.88
2019-04-29T09:47:29.445Z,13.87
2019-04-29T09:49:56.418Z,14.00
2019-04-29T09:52:23.452Z,14.15
2019-04-29T09:54:50.552Z,14.22
2019-04-29T09:57:17.482Z,14.30
2019-04-29T09:59:51.951Z,14.57
2019-04-29T10:02:41.230Z,14.54
2019-04-29T10:05:26.561Z,14.48
2019-04-29T10:07:56.499Z,14.39
2019-04-29T10:10:23.451Z,14.35
2019-04-29T10:12:53.636Z,14.35
2019-04-29T10:15:24.503Z,14.59
2019-04-29T10:18:07.901Z,14.92
2019-04-29T10:20:47.778Z,15.14
2019-04-29T10:23:14.746Z,15.33
2019-04-29T10:25:41.740Z,15.36
2019-04-29T10:28:08.946Z,15.29
2019-04-29T10:30:36.153Z,15.25
2019-04-29T10:33:03.323Z,15.36
2019-04-29T10:35:30.473Z,15.66
2019-04-29T10:37:57.412Z,15.96
2019-04-29T10:40:38.607Z,16.26
2019-04-29T10:44:05.933Z,16.54
2019-04-29T10:46:51.131Z,16.75
2019-04-29T10:49:34.833Z,16.49
2019-04-29T10:52:02.904Z,16.17
2019-04-29T10:54:29.915Z,16.18
2019-04-29T10:56:57.088Z,16.41
2019-04-29T10:59:35.626Z,16.50
2019-04-29T11:02:49.776Z,16.28
2019-04-29T11:05:44.549Z,16.13
2019-04-29T11:08:38.233Z,16.03
2019-04-29T11:11:07.086Z,15.90
2019-04-29T11:13:34.029Z,16.39
2019-04-29T11:16:00.985Z,16.83
2019-04-29T11:18:28.229Z,16.67
2019-04-29T11:20:55.535Z,16.20
2019-04-29T11:23:42.654Z,15.95
2019-04-29T11:26:19.943Z,16.02
2019-04-29T11:28:51.236Z,16.43
2019-04-29T11:31:19.134Z,16.67
2019-04-29T11:34:11.575Z,16.81
2019-04-29T11:36:43.941Z,17.14
2019-04-29T11:39:13.380Z,17.88
2019-04-29T11:41:37.809Z,18.46
2019-04-29T11:44:04.957Z,18.17
2019-04-29T11:46:32.878Z,17.72
2019-04-29T11:49:01.842Z,17.16
2019-04-29T11:51:48.630Z,16.76
2019-04-29T11:54:08.191Z,16.73
2019-04-29T11:56:33.922Z,16.61
2019-04-29T11:59:37.362Z,16.59
2019-04-29T12:02:23.852Z,16.69
2019-04-29T12:04:56.943Z,17.56
2019-04-29T12:07:31.686Z,18.16
2019-04-29T12:09:54.937Z,18.42
2019-04-29T12:12:22.723Z,18.71
2019-04-29T12:14:59.300Z,18.91
2019-04-29T12:17:30.040Z,19.29
2019-04-29T12:19:59.573Z,19.70
2019-04-29T12:22:30.736Z,19.95
2019-04-29T12:24:55.462Z,20.56
2019-04-29T12:27:22.645Z,21.16
2019-04-29T12:29:53.893Z,21.50
2019-04-29T12:33:00.902Z,20.72
2019-04-29T12:35:30.233Z,19.63
2019-04-29T12:38:18.203Z,18.57
2019-04-29T12:41:04.870Z,18.91
2019-04-29T12:43:59.330Z,19.77
2019-04-29T12:46:46.573Z,20.59
2019-04-29T12:49:13.935Z,21.54
2019-04-29T12:51:41.220Z,22.14
2019-04-29T12:54:08.189Z,21.53
2019-04-29T12:56:37.273Z,21.72
2019-04-29T12:59:24.851Z,21.94
2019-04-29T13:02:02.277Z,22.21
2019-04-29T13:04:49.907Z,22.23
2019-04-29T13:07:24.607Z,22.11
2019-04-29T13:09:53.662Z,21.29
2019-04-29T13:12:20.606Z,20.28
2019-04-29T13:15:02.994Z,19.74
2019-04-29T13:17:35.540Z,19.33
2019-04-29T13:20:07.419Z,19.56
2019-04-29T13:22:34.376Z,19.32
2019-04-29T13:25:01.322Z,19.12
2019-04-29T13:27:28.426Z,19.00
2019-04-29T13:29:55.359Z,18.84
2019-04-29T13:32:25.346Z,18.88
2019-04-29T13:34:51.975Z,19.14
2019-04-29T13:37:20.027Z,19.34
2019-04-29T13:39:47.213Z,19.16
2019-04-29T13:42:15.802Z,18.65
2019-04-29T13:45:04.665Z,18.34
2019-04-29T13:47:43.816Z,18.09
2019-04-29T13:50:39.629Z,18.38
2019-04-29T13:52:58.110Z,18.82
2019-04-29T13:55:47.307Z,18.97
2019-04-29T13:57:55.924Z,19.47
2019-04-29T14:00:36.577Z,19.74
2019-04-29T14:03:11.512Z,19.97
2019-04-29T14:05:45.476Z,19.91
2019-04-29T14:08:12.528Z,20.01
2019-04-29T14:11:21.794Z,20.26
2019-04-29T14:13:48.489Z,20.43
2019-04-29T14:16:18.983Z,20.80
2019-04-29T14:18:48.287Z,20.80
2019-04-29T14:21:14.645Z,20.54
2019-04-29T14:23:41.600Z,19.76
2019-04-29T14:26:08.614Z,19.31
2019-04-29T14:28:35.561Z,19.59
2019-04-29T14:31:02.502Z,20.22
2019-04-29T14:33:35.163Z,20.51
2019-04-29T14:36:05.670Z,20.32
2019-04-29T14:38:35.833Z,20.42
2019-04-29T14:41:04.050Z,20.53
2019-04-29T14:43:55.105Z,20.70
2019-04-29T14:46:46.893Z,20.45
2019-04-29T14:49:17.131Z,20.40
2019-04-29T14:51:45.892Z,19.98
2019-04-29T14:54:14.046Z,19.60
2019-04-29T14:56:40.991Z,19.43
2019-04-29T14:59:07.967Z,19.27
2019-04-29T15:01:44.672Z,19.25
2019-04-29T15:04:18.224Z,19.08
2019-04-29T15:06:42.899Z,18.84
2019-04-29T15:09:17.005Z,18.79
2019-04-29T15:12:01.039Z,18.75
2019-04-29T15:15:01.747Z,18.73
2019-04-29T15:18:15.323Z,18.73
2019-04-29T15:20:48.492Z,18.59
2019-04-29T15:23:28.020Z,18.61
2019-04-29T15:25:44.444Z,18.43
2019-04-29T15:28:11.446Z,18.50
2019-04-29T15:30:38.743Z,18.23
2019-04-29T15:33:14.941Z,18.10
2019-04-29T15:35:41.897Z,17.91
2019-04-29T15:38:08.829Z,17.88
2019-04-29T15:40:42.768Z,17.87
2019-04-29T15:43:04.748Z,17.86
2019-04-29T15:45:32.306Z,17.81
2019-04-29T15:48:00.748Z,17.71
2019-04-29T15:50:27.715Z,17.62
2019-04-29T15:52:54.703Z,17.56
2019-04-29T15:55:21.739Z,17.47
2019-04-29T15:57:50.358Z,17.43
2019-04-29T16:00:22.508Z,17.56
2019-04-29T16:02:48.226Z,17.65
2019-04-29T16:06:04.616Z,17.55
2019-04-29T16:08:38.400Z,17.48
2019-04-29T16:11:23.440Z,17.33
2019-04-29T16:14:08.369Z,17.28
2019-04-29T16:16:19.258Z,17.30
2019-04-29T16:18:46.309Z,17.27
2019-04-29T16:21:13.248Z,17.18
2019-04-29T16:23:40.395Z,17.18
2019-04-29T16:26:07.480Z,17.21
2019-04-29T16:28:39.512Z,17.10
2019-04-29T16:31:04.950Z,16.97
2019-04-29T16:33:32.146Z,16.90
2019-04-29T16:36:04.861Z,16.76
2019-04-29T16:38:27.929Z,16.69
2019-04-29T16:41:12.545Z,16.61
2019-04-29T16:43:41.688Z,16.54
2019-04-29T16:46:12.912Z,16.54
2019-04-29T16:48:39.953Z,16.45
2019-04-29T16:51:14.063Z,16.43
2019-04-29T16:53:35.905Z,16.40
2019-04-29T16:56:03.048Z,16.38
2019-04-29T16:58:30.007Z,16.30
2019-04-29T17:00:56.963Z,16.22
2019-04-29T17:03:23.954Z,16.16
2019-04-29T17:05:51.019Z,16.12
2019-04-29T17:08:20.295Z,16.09
2019-04-29T17:11:12.093Z,16.03
2019-04-29T17:13:35.264Z,15.90
2019-04-29T17:16:04.136Z,15.78
2019-04-29T17:18:31.192Z,15.69
2019-04-29T17:21:04.523Z,15.69
2019-04-29T17:23:26.973Z,15.69
2019-04-29T17:25:53.983Z,15.69
2019-04-29T17:28:29.186Z,15.73
2019-04-29T17:31:13.775Z,15.77
2019-04-29T17:33:51.295Z,15.79
2019-04-29T17:36:23.600Z,15.73
2019-04-29T17:38:47.845Z,15.63
2019-04-29T17:41:15.004Z,15.55
2019-04-29T17:44:00.400Z,15.47
2019-04-29T17:46:49.759Z,15.33
2019-04-29T17:52:25.829Z,15.09
2019-04-29T17:54:56.310Z,14.94
2019-04-29T18:01:08.113Z,14.77
2019-04-29T18:03:55.858Z,14.71
2019-04-29T18:06:31.643Z,14.66
2019-04-29T18:09:21.086Z,14.62
2019-04-29T18:11:51.814Z,14.56
2019-04-29T18:14:16.921Z,14.47
2019-04-29T18:16:47.825Z,14.42
2019-04-29T18:19:21.715Z,14.37
2019-04-29T18:22:07.375Z,14.31
2019-04-29T18:24:50.112Z,14.26
2019-04-29T18:27:18.679Z,14.16
2019-04-29T18:29:45.877Z,14.06
2019-04-29T18:32:12.940Z,14.00
2019-04-29T18:34:40.025Z,13.96
2019-04-29T18:37:48.145Z,13.98
2019-04-29T18:40:16.067Z,13.87
2019-04-29T18:42:46.851Z,13.77
2019-04-29T18:45:12.570Z,13.76
2019-04-29T18:47:39.616Z,13.64
2019-04-29T18:50:08.408Z,13.58
2019-04-29T18:52:35.407Z,13.54
2019-04-29T18:55:02.603Z,13.50
2019-04-29T18:57:30.917Z,13.48
2019-04-29T18:59:58.086Z,13.43
2019-04-29T19:02:27.106Z,13.38
2019-04-29T19:05:07.334Z,13.36
2019-04-29T19:07:37.210Z,13.33
2019-04-29T19:10:07.673Z,13.32
2019-04-29T19:12:32.794Z,13.28
2019-04-29T19:15:04.518Z,13.26
2019-04-29T19:17:30.784Z,13.25
2019-04-29T19:19:57.600Z,13.24
2019-04-29T19:22:25.897Z,13.18
2019-04-29T19:24:52.918Z,13.16
2019-04-29T19:27:19.904Z,13.13
2019-04-29T19:29:46.869Z,13.09
2019-04-29T19:32:14.020Z,13.07
2019-04-29T19:34:43.460Z,13.05
2019-04-29T19:37:10.378Z,13.01
2019-04-29T19:39:37.840Z,13.00
2019-04-29T19:42:05.657Z,12.97
2019-04-29T19:44:33.605Z,12.94
2019-04-29T19:47:01.669Z,12.90
2019-04-29T19:49:28.658Z,12.88
2019-04-29T19:51:55.726Z,12.85
2019-04-29T19:54:24.482Z,12.79
2019-04-29T19:57:02.929Z,12.75
2019-04-29T19:59:22.733Z,12.75
2019-04-29T20:01:52.137Z,12.70
2019-04-29T20:04:39.281Z,12.68
2019-04-29T20:07:10.081Z,12.67
2019-04-29T20:09:37.839Z,12.55
2019-04-29T20:16:09.526Z,12.44
2019-04-29T20:18:40.437Z,12.26
2019-04-29T20:21:20.851Z,12.18
2019-04-29T20:23:41.996Z,12.13
2019-04-29T20:26:16.060Z,12.07
2019-04-29T20:28:38.178Z,12.00
2019-04-29T20:31:16.254Z,11.99
2019-04-29T20:33:34.397Z,11.91
2019-04-29T20:36:02.392Z,11.87
2019-04-29T20:38:34.132Z,11.80
2019-04-29T20:41:18.107Z,11.72
2019-04-29T20:43:46.257Z,11.70
2019-04-29T20:46:13.698Z,11.61
2019-04-29T20:48:50.421Z,11.59
2019-04-29T20:51:17.035Z,11.58
2019-04-29T20:53:53.050Z,11.54
2019-04-29T20:56:25.267Z,11.53
2019-04-29T20:58:49.433Z,11.52
2019-04-29T21:01:25.779Z,11.54
2019-04-29T21:03:56.001Z,11.53
2019-04-29T21:06:21.734Z,11.56
2019-04-29T21:08:51.189Z,11.54
2019-04-29T21:11:25.789Z,11.55
2019-04-29T21:14:11.453Z,11.54
2019-04-29T21:16:41.484Z,11.55
2019-04-29T21:19:09.114Z,11.53
2019-04-29T21:21:36.816Z,11.55
2019-04-29T21:24:06.454Z,11.51
2019-04-29T21:26:37.905Z,11.51
2019-04-29T21:29:03.284Z,11.46
2019-04-29T21:31:32.377Z,11.46
2019-04-29T21:34:12.380Z,11.45
2019-04-29T21:36:52.961Z,11.46
2019-04-29T21:39:39.565Z,11.47
2019-04-29T21:42:29.749Z,11.45
2019-04-29T21:44:58.686Z,11.42
2019-04-29T21:47:26.821Z,11.39
2019-04-29T21:49:54.623Z,11.40
2019-04-29T21:52:24.023Z,11.42
2019-04-29T21:54:50.710Z,11.39
2019-04-29T21:57:23.685Z,11.39
2019-04-29T21:59:48.661Z,11.37
2019-04-29T22:02:17.541Z,11.33
2019-04-29T22:04:44.965Z,11.30
2019-04-29T22:07:15.514Z,11.27
2019-04-29T22:09:57.724Z,11.25
2019-04-29T22:12:24.704Z,11.23
2019-04-29T22:14:54.195Z,11.18
2019-04-29T22:17:21.640Z,11.17
2019-04-29T22:19:48.797Z,11.15
2019-04-29T22:22:15.936Z,11.14
2019-04-29T22:24:42.987Z,11.10
2019-04-29T22:27:10.057Z,11.09
2019-04-29T22:29:38.966Z,11.09
2019-04-29T22:32:09.252Z,11.07
2019-04-29T22:34:35.461Z,11.06
2019-04-29T22:37:02.601Z,11.05
2019-04-29T22:39:30.139Z,11.03
2019-04-29T22:42:05.561Z,11.01
2019-04-29T22:44:39.464Z,11.03
2019-04-29T22:47:06.403Z,11.01
2019-04-29T22:49:34.263Z,11.00
2019-04-29T22:52:01.220Z,10.99
2019-04-29T22:54:28.160Z,11.01
2019-04-29T22:56:56.715Z,11.00
2019-04-29T22:59:25.406Z,10.99
2019-04-29T23:01:52.707Z,11.00
2019-04-29T23:04:19.674Z,11.01
2019-04-29T23:06:48.108Z,10.99
2019-04-29T23:09:15.308Z,10.98
2019-04-29T23:11:42.262Z,10.98
2019-04-29T23:14:10.151Z,10.97
2019-04-29T23:16:37.384Z,11.01
2019-04-29T23:19:05.272Z,10.97
2019-04-29T23:21:50.987Z,10.96
2019-04-29T23:24:40.662Z,10.97
2019-04-29T23:27:11.624Z,10.96
2019-04-29T23:29:43.067Z,10.94
2019-04-29T23:32:10.506Z,10.93
2019-04-29T23:34:37.735Z,10.91
2019-04-29T23:37:04.871Z,10.90
2019-04-29T23:39:34.796Z,10.90
2019-04-29T23:42:04.734Z,10.87
2019-04-29T23:44:31.447Z,10.87
2019-04-29T23:46:58.609Z,10.87
2019-04-29T23:49:25.747Z,10.84
2019-04-29T23:51:53.062Z,10.84
2019-04-29T23:54:20.182Z,10.82
2019-04-29T23:57:06.143Z,10.82
2019-04-29T23:59:35.581Z,10.81
